createdAt,value
2019-02-27T00:01:56.447Z,3.40
2019-02-27T00:04:25.624Z,3.40
2019-02-27T00:06:54.755Z,3.30
2019-02-27T00:09:23.527Z,3.30
2019-02-27T00:11:52.405Z,3.30
2019-02-27T00:14:21.292Z,3.30
2019-02-27T00:16:50.101Z,3.20
2019-02-27T00:19:18.823Z,3.20
2019-02-27T00:21:51.240Z,3.20
2019-02-27T00:24:20.133Z,3.20
2019-02-27T00:26:48.935Z,3.20
2019-02-27T00:29:17.640Z,3.20
2019-02-27T00:31:46.841Z,3.10
2019-02-27T00:34:15.722Z,3.10
2019-02-27T00:36:45.046Z,3.10
2019-02-27T00:39:14.640Z,3.20
2019-02-27T00:42:19.522Z,3.20
2019-02-27T00:44:45.125Z,3.20
2019-02-27T00:47:13.803Z,3.10
2019-02-27T00:49:42.517Z,3.20
2019-02-27T00:52:11.277Z,3.10
2019-02-27T00:54:39.975Z,3.10
2019-02-27T00:57:08.787Z,3.10
2019-02-27T00:59:37.526Z,3.10
2019-02-27T01:02:06.300Z,3.10
2019-02-27T01:04:35.637Z,3.10
2019-02-27T01:07:04.613Z,3.00
2019-02-27T01:09:33.415Z,3.00
2019-02-27T01:12:02.164Z,3.00
2019-02-27T01:14:31.152Z,3.00
2019-02-27T01:16:59.919Z,3.00
2019-02-27T01:19:28.708Z,3.00
2019-02-27T01:21:57.453Z,3.10
2019-02-27T01:24:26.302Z,3.00
2019-02-27T01:26:55.049Z,2.90
2019-02-27T01:29:23.786Z,2.90
2019-02-27T01:31:54.995Z,2.90
2019-02-27T01:34:23.058Z,2.90
2019-02-27T01:36:51.923Z,2.80
2019-02-27T01:39:20.826Z,2.80
2019-02-27T01:41:49.640Z,2.90
2019-02-27T01:44:18.489Z,2.80
2019-02-27T01:46:47.205Z,2.80
2019-02-27T01:49:16.695Z,2.80
2019-02-27T01:51:45.903Z,2.80
2019-02-27T01:54:15.059Z,2.70
2019-02-27T01:56:44.426Z,2.70
2019-02-27T01:59:14.023Z,2.70
2019-02-27T02:01:43.617Z,2.70
2019-02-27T02:04:15.214Z,2.70
2019-02-27T02:06:43.928Z,2.70
2019-02-27T02:09:32.777Z,2.60
2019-02-27T02:12:17.005Z,2.50
2019-02-27T02:15:00.309Z,2.30
2019-02-27T02:17:54.276Z,2.20
2019-02-27T02:20:45.430Z,2.10
2019-02-27T02:23:38.354Z,2.00
2019-02-27T02:26:43.201Z,1.80
2019-02-27T02:29:30.100Z,1.80
2019-02-27T02:32:23.378Z,1.70
2019-02-27T02:35:14.604Z,1.60
2019-02-27T02:38:17.117Z,1.60
2019-02-27T02:41:00.952Z,1.50
2019-02-27T02:44:00.909Z,1.40
2019-02-27T02:46:44.879Z,1.40
2019-02-27T02:49:12.147Z,1.30
2019-02-27T02:51:46.578Z,1.30
2019-02-27T02:54:27.120Z,1.30
2019-02-27T02:57:14.480Z,1.20
2019-02-27T02:59:52.000Z,1.20
2019-02-27T03:02:29.559Z,1.10
2019-02-27T03:05:00.539Z,1.20
2019-02-27T03:07:35.072Z,1.10
2019-02-27T03:10:11.073Z,1.10
2019-02-27T03:12:57.843Z,1.10
2019-02-27T03:15:35.346Z,1.10
2019-02-27T03:18:22.273Z,1.00
2019-02-27T03:21:08.751Z,1.00
2019-02-27T03:24:09.693Z,1.00
2019-02-27T03:26:42.528Z,1.00
2019-02-27T03:29:39.914Z,1.00
2019-02-27T03:32:14.554Z,1.00
2019-02-27T03:35:27.997Z,0.90
2019-02-27T03:38:00.257Z,0.90
2019-02-27T03:40:40.623Z,0.90
2019-02-27T03:43:23.971Z,0.90
2019-02-27T03:46:03.161Z,0.90
2019-02-27T03:48:46.791Z,0.90
2019-02-27T03:51:47.089Z,0.90
2019-02-27T03:54:38.538Z,0.80
2019-02-27T03:57:25.231Z,0.80
2019-02-27T04:00:02.885Z,0.80
2019-02-27T04:02:46.508Z,0.80
2019-02-27T04:05:33.149Z,0.80
2019-02-27T04:08:23.014Z,0.80
2019-02-27T04:10:53.159Z,0.70
2019-02-27T04:13:26.837Z,0.70
2019-02-27T04:15:54.359Z,0.70
2019-02-27T04:18:27.390Z,0.70
2019-02-27T04:20:52.469Z,0.80
2019-02-27T04:23:21.381Z,0.80
2019-02-27T04:25:50.452Z,0.70
2019-02-27T04:28:19.346Z,0.70
2019-02-27T04:30:51.006Z,0.70
2019-02-27T04:33:22.918Z,0.70
2019-02-27T04:35:49.036Z,0.70
2019-02-27T04:38:17.698Z,0.70
2019-02-27T04:40:46.463Z,0.70
2019-02-27T04:43:15.287Z,0.70
2019-02-27T04:45:47.600Z,0.60
2019-02-27T04:48:16.464Z,0.60
2019-02-27T04:50:45.340Z,0.60
2019-02-27T04:53:14.158Z,0.60
2019-02-27T04:55:43.144Z,0.50
2019-02-27T04:58:11.949Z,0.50
2019-02-27T05:00:40.878Z,0.60
2019-02-27T05:03:09.750Z,0.50
2019-02-27T05:05:39.123Z,0.50
2019-02-27T05:08:09.116Z,0.50
2019-02-27T05:10:38.184Z,0.50
2019-02-27T05:13:08.286Z,0.40
2019-02-27T05:15:39.596Z,0.40
2019-02-27T05:18:07.686Z,0.40
2019-02-27T05:20:36.381Z,0.40
2019-02-27T05:23:05.228Z,0.40
2019-02-27T05:25:34.025Z,0.40
2019-02-27T05:28:03.066Z,0.40
2019-02-27T05:30:31.902Z,0.40
2019-02-27T05:33:02.293Z,0.40
2019-02-27T05:35:31.094Z,0.30
2019-02-27T05:37:59.776Z,0.30
2019-02-27T05:40:28.626Z,0.30
2019-02-27T05:42:57.253Z,0.30
2019-02-27T05:45:31.165Z,0.30
2019-02-27T05:47:59.346Z,0.30
2019-02-27T05:50:33.989Z,0.30
2019-02-27T05:53:01.808Z,0.40
2019-02-27T05:55:30.476Z,0.40
2019-02-27T05:57:59.255Z,0.40
2019-02-27T06:00:34.003Z,0.40
2019-02-27T06:03:01.472Z,0.40
2019-02-27T06:05:30.744Z,0.50
2019-02-27T06:08:02.098Z,0.60
2019-02-27T06:10:29.894Z,0.60
2019-02-27T06:12:58.660Z,0.60
2019-02-27T06:15:28.598Z,0.70
2019-02-27T06:17:58.202Z,0.70
2019-02-27T06:20:26.890Z,0.80
2019-02-27T06:22:55.673Z,0.80
2019-02-27T06:25:24.491Z,1.00
2019-02-27T06:28:18.447Z,1.10
2019-02-27T06:30:30.677Z,1.10
2019-02-27T06:32:59.074Z,1.10
2019-02-27T06:35:27.982Z,1.20
2019-02-27T06:37:56.738Z,1.20
2019-02-27T06:40:25.466Z,1.30
2019-02-27T06:42:56.240Z,1.40
2019-02-27T06:45:25.082Z,1.50
2019-02-27T06:47:56.311Z,1.60
2019-02-27T06:50:26.070Z,1.70
2019-02-27T06:52:55.114Z,1.70
2019-02-27T06:55:25.492Z,1.80
2019-02-27T06:57:54.439Z,1.80
2019-02-27T07:00:27.346Z,1.90
2019-02-27T07:02:59.182Z,1.90
2019-02-27T07:05:32.199Z,2.00
2019-02-27T07:07:58.662Z,2.10
2019-02-27T07:10:27.678Z,2.20
2019-02-27T07:12:59.573Z,2.30
2019-02-27T07:15:33.585Z,2.40
2019-02-27T07:18:06.096Z,2.60
2019-02-27T07:20:35.666Z,3.20
2019-02-27T07:23:11.120Z,4.20
2019-02-27T07:25:42.033Z,4.70
2019-02-27T07:28:11.755Z,4.90
2019-02-27T07:30:42.520Z,6.00
2019-02-27T07:33:10.999Z,7.20
2019-02-27T07:35:42.416Z,8.20
2019-02-27T07:38:13.965Z,9.70
2019-02-27T07:40:44.461Z,10.30
2019-02-27T07:43:13.369Z,11.10
2019-02-27T07:45:47.839Z,11.30
2019-02-27T07:48:32.010Z,11.80
2019-02-27T07:51:05.679Z,12.20
2019-02-27T07:53:37.327Z,13.10
2019-02-27T07:56:10.111Z,14.30
2019-02-27T07:58:43.435Z,14.80
2019-02-27T08:01:14.208Z,16.10
2019-02-27T08:03:51.200Z,16.10
2019-02-27T08:06:20.911Z,17.10
2019-02-27T08:08:51.324Z,17.90
2019-02-27T08:11:21.750Z,18.50
2019-02-27T08:13:55.088Z,18.00
2019-02-27T08:16:23.936Z,18.60
2019-02-27T08:18:54.578Z,19.00
2019-02-27T08:21:24.788Z,20.00
2019-02-27T08:23:59.666Z,20.40
2019-02-27T08:26:31.486Z,21.40
2019-02-27T08:29:18.356Z,21.30
2019-02-27T08:35:16.744Z,21.60
2019-02-27T08:37:45.620Z,22.60
2019-02-27T08:40:15.175Z,22.20
2019-02-27T08:42:49.444Z,22.40
2019-02-27T08:45:26.667Z,22.20
2019-02-27T08:47:55.591Z,22.10
2019-02-27T08:50:24.837Z,21.90
2019-02-27T08:52:57.831Z,21.00
2019-02-27T08:55:29.791Z,21.20
2019-02-27T08:57:59.830Z,21.10
2019-02-27T09:00:33.096Z,21.70
2019-02-27T09:03:03.845Z,21.30
2019-02-27T09:05:36.067Z,22.20
2019-02-27T09:08:44.019Z,22.00
2019-02-27T09:11:11.411Z,21.80
2019-02-27T09:13:40.285Z,20.60
2019-02-27T09:16:11.152Z,19.50
2019-02-27T09:18:39.843Z,19.20
2019-02-27T09:21:08.886Z,19.10
2019-02-27T09:23:37.679Z,18.30
2019-02-27T09:26:06.545Z,16.90
2019-02-27T09:28:35.591Z,15.50
2019-02-27T09:31:04.615Z,14.60
2019-02-27T09:33:38.679Z,13.50
2019-02-27T09:36:04.214Z,12.30
2019-02-27T09:38:32.985Z,11.60
2019-02-27T09:41:02.799Z,11.00
2019-02-27T09:43:32.271Z,11.00
2019-02-27T09:46:01.158Z,11.90
2019-02-27T09:48:31.153Z,13.60
2019-02-27T09:51:00.579Z,15.30
2019-02-27T09:53:29.513Z,17.00
2019-02-27T09:56:01.456Z,18.30
2019-02-27T09:58:33.698Z,19.20
2019-02-27T10:01:14.298Z,20.20
2019-02-27T10:03:44.176Z,21.10
2019-02-27T10:06:13.206Z,22.10
2019-02-27T10:08:47.116Z,22.70
2019-02-27T10:11:26.167Z,22.40
2019-02-27T10:13:55.376Z,20.50
2019-02-27T10:16:25.222Z,18.90
2019-02-27T10:18:58.375Z,17.60
2019-02-27T10:21:27.348Z,16.50
2019-02-27T10:23:56.092Z,15.80
2019-02-27T10:26:24.979Z,14.30
2019-02-27T10:28:55.562Z,13.20
2019-02-27T10:31:25.983Z,12.20
2019-02-27T10:34:24.184Z,11.40
2019-02-27T10:37:13.293Z,11.10
2019-02-27T10:39:42.330Z,11.10
2019-02-27T10:42:12.216Z,11.30
2019-02-27T10:44:41.009Z,11.80
2019-02-27T10:47:09.756Z,12.50
2019-02-27T10:49:47.591Z,12.90
2019-02-27T10:52:24.061Z,13.00
2019-02-27T10:54:51.119Z,13.00
2019-02-27T10:57:21.087Z,13.50
2019-02-27T10:59:52.589Z,14.30
2019-02-27T11:02:23.577Z,14.50
2019-02-27T11:04:52.829Z,14.70
2019-02-27T11:07:23.575Z,15.00
2019-02-27T11:09:59.025Z,15.70
2019-02-27T11:12:26.874Z,15.20
2019-02-27T11:15:01.966Z,14.50
2019-02-27T11:17:30.943Z,14.30
2019-02-27T11:20:00.353Z,13.90
2019-02-27T11:22:31.657Z,13.90
2019-02-27T11:24:59.745Z,14.80
2019-02-27T11:27:28.715Z,16.20
2019-02-27T11:30:02.700Z,17.10
2019-02-27T11:32:29.734Z,18.10
2019-02-27T11:35:02.803Z,19.00
2019-02-27T11:37:33.202Z,18.70
2019-02-27T11:40:05.317Z,18.10
2019-02-27T11:42:36.104Z,18.30
2019-02-27T11:45:08.152Z,18.50
2019-02-27T11:47:36.874Z,18.80
2019-02-27T11:50:08.805Z,19.90
2019-02-27T11:52:48.587Z,19.90
2019-02-27T11:55:14.841Z,20.10
2019-02-27T11:57:45.690Z,19.40
2019-02-27T12:00:21.372Z,19.40
2019-02-27T12:02:50.175Z,19.40
2019-02-27T12:05:18.938Z,19.30
2019-02-27T12:07:50.747Z,19.00
2019-02-27T12:10:20.662Z,18.80
2019-02-27T12:12:49.418Z,18.60
2019-02-27T12:15:20.054Z,19.20
2019-02-27T12:17:48.838Z,19.20
2019-02-27T12:20:20.668Z,19.50
2019-02-27T12:23:10.163Z,19.70
2019-02-27T12:25:43.470Z,19.90
2019-02-27T12:28:12.417Z,19.90
2019-02-27T12:30:42.865Z,19.40
2019-02-27T12:33:11.652Z,19.50
2019-02-27T12:35:44.893Z,19.80
2019-02-27T12:38:13.864Z,19.70
2019-02-27T12:40:42.560Z,20.10
2019-02-27T12:43:18.344Z,20.00
2019-02-27T12:45:46.286Z,20.00
2019-02-27T12:48:16.668Z,19.60
2019-02-27T12:50:45.258Z,19.80
2019-02-27T12:53:13.897Z,20.00
2019-02-27T12:55:42.742Z,19.90
2019-02-27T12:58:13.374Z,19.50
2019-02-27T13:00:43.789Z,19.20
2019-02-27T13:03:12.571Z,19.00
2019-02-27T13:05:42.950Z,18.60
2019-02-27T13:08:12.694Z,18.60
2019-02-27T13:10:41.799Z,18.40
2019-02-27T13:13:11.981Z,18.40
2019-02-27T13:15:41.697Z,18.70
2019-02-27T13:18:12.306Z,18.30
2019-02-27T13:20:45.659Z,18.40
2019-02-27T13:23:14.398Z,18.60
2019-02-27T13:25:44.609Z,19.00
2019-02-27T13:28:14.660Z,19.20
2019-02-27T13:30:43.866Z,19.40
2019-02-27T13:33:12.724Z,18.80
2019-02-27T13:35:44.065Z,18.80
2019-02-27T13:38:17.624Z,18.40
2019-02-27T13:40:44.966Z,18.00
2019-02-27T13:43:21.133Z,17.60
2019-02-27T13:45:52.732Z,17.50
2019-02-27T13:48:20.473Z,17.90
2019-02-27T13:50:49.216Z,17.80
2019-02-27T13:53:18.086Z,17.90
2019-02-27T13:55:48.312Z,17.80
2019-02-27T13:58:17.384Z,17.90
2019-02-27T14:00:46.266Z,17.80
2019-02-27T14:03:15.093Z,17.90
2019-02-27T14:05:44.444Z,17.60
2019-02-27T14:08:13.611Z,17.40
2019-02-27T14:10:44.444Z,17.10
2019-02-27T14:13:13.042Z,16.50
2019-02-27T14:15:41.815Z,16.30
2019-02-27T14:18:13.353Z,15.50
2019-02-27T14:20:41.024Z,14.80
2019-02-27T14:23:11.988Z,14.30
2019-02-27T14:25:40.191Z,13.70
2019-02-27T14:28:08.908Z,13.30
2019-02-27T14:30:40.769Z,13.10
2019-02-27T14:33:10.966Z,13.20
2019-02-27T14:35:40.031Z,13.50
2019-02-27T14:38:08.648Z,13.70
2019-02-27T14:40:40.932Z,13.70
2019-02-27T14:43:08.052Z,13.30
2019-02-27T14:45:39.721Z,12.90
2019-02-27T14:48:07.504Z,12.60
2019-02-27T14:50:36.460Z,12.30
2019-02-27T14:53:06.496Z,12.10
2019-02-27T14:55:37.285Z,12.00
2019-02-27T14:58:08.466Z,11.80
2019-02-27T15:00:40.914Z,11.70
2019-02-27T15:03:08.653Z,11.60
2019-02-27T15:05:42.823Z,11.50
2019-02-27T15:08:08.078Z,11.50
2019-02-27T15:10:40.150Z,11.40
2019-02-27T15:13:08.418Z,11.30
2019-02-27T15:15:43.162Z,11.20
2019-02-27T15:18:08.632Z,11.10
2019-02-27T15:20:39.960Z,11.10
2019-02-27T15:23:11.061Z,11.10
2019-02-27T15:25:43.140Z,11.10
2019-02-27T15:28:12.027Z,11.00
2019-02-27T15:30:40.526Z,11.00
2019-02-27T15:33:09.273Z,11.00
2019-02-27T15:35:38.175Z,11.00
2019-02-27T15:38:11.252Z,11.00
2019-02-27T15:40:38.396Z,11.00
2019-02-27T15:43:11.488Z,10.90
2019-02-27T15:45:47.265Z,10.90
2019-02-27T15:48:10.855Z,10.90
2019-02-27T15:50:39.828Z,10.90
2019-02-27T15:53:08.690Z,10.90
2019-02-27T15:55:38.573Z,10.80
2019-02-27T15:58:07.446Z,10.80
2019-02-27T16:00:36.246Z,10.80
2019-02-27T16:03:05.161Z,10.70
2019-02-27T16:05:33.912Z,10.60
2019-02-27T16:08:02.745Z,10.60
2019-02-27T16:10:31.615Z,10.50
2019-02-27T16:13:01.316Z,10.40
2019-02-27T16:15:30.390Z,10.30
2019-02-27T16:17:59.081Z,10.20
2019-02-27T16:20:28.858Z,10.20
2019-02-27T16:22:57.661Z,10.10
2019-02-27T16:25:30.082Z,10.00
2019-02-27T16:27:59.033Z,10.00
2019-02-27T16:30:32.311Z,9.90
2019-02-27T16:32:59.798Z,9.80
2019-02-27T16:35:28.481Z,9.80
2019-02-27T16:37:57.967Z,9.70
2019-02-27T16:40:30.759Z,9.60
2019-02-27T16:42:59.691Z,9.50
2019-02-27T16:45:36.649Z,9.40
2019-02-27T16:48:04.404Z,9.40
2019-02-27T16:50:33.182Z,9.30
2019-02-27T16:53:01.815Z,9.30
2019-02-27T16:55:35.670Z,9.30
2019-02-27T16:58:01.942Z,9.20
2019-02-27T17:00:37.305Z,9.10
2019-02-27T17:03:06.039Z,9.10
2019-02-27T17:05:34.809Z,9.00
2019-02-27T17:08:03.675Z,8.90
2019-02-27T17:10:36.913Z,8.90
2019-02-27T17:13:05.700Z,8.90
2019-02-27T17:15:35.867Z,8.80
2019-02-27T17:18:05.065Z,8.80
2019-02-27T17:20:33.802Z,8.70
2019-02-27T17:23:06.843Z,8.70
2019-02-27T17:25:33.073Z,8.60
2019-02-27T17:28:01.936Z,8.70
2019-02-27T17:30:36.379Z,8.60
2019-02-27T17:33:05.097Z,8.60
2019-02-27T17:35:34.518Z,8.60
2019-02-27T17:38:06.968Z,8.60
2019-02-27T17:40:37.486Z,8.50
2019-02-27T17:43:06.886Z,8.50
2019-02-27T17:45:36.040Z,8.50
2019-02-27T17:48:09.281Z,8.50
2019-02-27T17:50:37.241Z,8.50
2019-02-27T17:53:06.133Z,8.50
2019-02-27T17:55:35.064Z,8.60
2019-02-27T17:58:05.466Z,8.60
2019-02-27T18:00:39.077Z,8.60
2019-02-27T18:03:07.987Z,8.60
2019-02-27T18:05:36.961Z,8.60
2019-02-27T18:08:05.885Z,8.60
2019-02-27T18:10:37.633Z,8.50
2019-02-27T18:13:05.386Z,8.50
2019-02-27T18:15:39.052Z,8.50
2019-02-27T18:18:10.604Z,8.50
2019-02-27T18:20:38.597Z,8.50
2019-02-27T18:23:08.990Z,8.50
2019-02-27T18:25:41.037Z,8.50
2019-02-27T18:28:08.429Z,8.50
2019-02-27T18:30:37.382Z,8.50
2019-02-27T18:33:06.258Z,8.50
2019-02-27T18:35:35.260Z,8.60
2019-02-27T18:38:04.162Z,8.50
2019-02-27T18:40:32.952Z,8.50
2019-02-27T18:43:01.929Z,8.50
2019-02-27T18:45:31.070Z,8.50
2019-02-27T18:47:59.938Z,8.50
2019-02-27T18:50:28.788Z,8.50
2019-02-27T18:52:57.654Z,8.50
2019-02-27T18:55:30.892Z,8.50
2019-02-27T18:57:57.317Z,8.50
2019-02-27T19:00:27.493Z,8.50
2019-02-27T19:02:59.021Z,8.50
2019-02-27T19:05:27.961Z,8.50
2019-02-27T19:07:56.719Z,8.50
2019-02-27T19:10:25.691Z,8.50
2019-02-27T19:12:54.614Z,8.50
2019-02-27T19:15:26.052Z,8.50
2019-02-27T19:17:55.328Z,8.40
2019-02-27T19:20:27.120Z,8.40
2019-02-27T19:22:55.860Z,8.50
2019-02-27T19:25:24.775Z,8.50
2019-02-27T19:27:54.738Z,8.40
2019-02-27T19:30:27.636Z,8.40
2019-02-27T19:33:01.880Z,8.40
2019-02-27T19:35:32.908Z,8.40
2019-02-27T19:38:03.683Z,8.40
2019-02-27T19:40:33.591Z,8.40
2019-02-27T19:43:07.382Z,8.40
2019-02-27T19:45:36.667Z,8.40
2019-02-27T19:48:09.378Z,8.30
2019-02-27T19:50:38.171Z,8.30
2019-02-27T19:53:09.909Z,8.40
2019-02-27T19:55:40.468Z,8.40
2019-02-27T19:58:11.173Z,8.40
2019-02-27T20:00:48.023Z,8.40
2019-02-27T20:03:16.186Z,8.40
2019-02-27T20:05:44.518Z,8.40
2019-02-27T20:08:13.451Z,8.40
2019-02-27T20:10:44.169Z,8.40
2019-02-27T20:13:13.285Z,8.40
2019-02-27T20:15:42.745Z,8.40
2019-02-27T20:18:13.036Z,8.40
2019-02-27T20:23:35.287Z,8.50
2019-02-27T20:26:14.279Z,8.50
2019-02-27T20:28:45.237Z,8.50
2019-02-27T20:31:19.718Z,8.50
2019-02-27T20:33:46.614Z,8.50
2019-02-27T20:36:16.909Z,8.60
2019-02-27T20:38:52.843Z,8.50
2019-02-27T20:41:21.957Z,8.50
2019-02-27T20:43:51.066Z,8.50
2019-02-27T20:46:20.027Z,8.40
2019-02-27T20:48:50.720Z,8.40
2019-02-27T20:51:29.109Z,8.40
2019-02-27T20:53:58.366Z,8.40
2019-02-27T20:56:27.390Z,8.40
2019-02-27T20:58:58.001Z,8.40
2019-02-27T21:01:28.829Z,8.40
2019-02-27T21:04:02.305Z,8.40
2019-02-27T21:06:30.220Z,8.40
2019-02-27T21:08:59.209Z,8.40
2019-02-27T21:11:29.912Z,8.30
2019-02-27T21:13:58.562Z,8.40
2019-02-27T21:16:27.419Z,8.40
2019-02-27T21:18:56.287Z,8.30
2019-02-27T21:21:25.190Z,8.30
2019-02-27T21:23:56.038Z,8.40
2019-02-27T21:26:26.017Z,8.40
2019-02-27T21:28:58.535Z,8.40
2019-02-27T21:31:27.525Z,8.40
2019-02-27T21:33:56.703Z,8.40
2019-02-27T21:39:22.503Z,8.30
2019-02-27T21:41:54.395Z,8.30
2019-02-27T21:44:25.764Z,8.30
2019-02-27T21:46:53.819Z,8.20
2019-02-27T21:49:22.667Z,8.20
2019-02-27T21:51:51.523Z,8.20
2019-02-27T21:54:20.376Z,8.20
2019-02-27T21:56:51.867Z,8.10
2019-02-27T21:59:28.637Z,8.10
2019-02-27T22:01:59.944Z,8.00
2019-02-27T22:04:29.196Z,8.00
2019-02-27T22:07:00.806Z,8.00
2019-02-27T22:09:29.903Z,8.00
2019-02-27T22:12:01.220Z,8.00
2019-02-27T22:14:29.098Z,7.90
2019-02-27T22:16:57.802Z,7.90
2019-02-27T22:19:26.714Z,7.90
2019-02-27T22:21:55.489Z,7.90
2019-02-27T22:24:24.286Z,7.90
2019-02-27T22:26:53.121Z,7.90
2019-02-27T22:29:21.931Z,7.90
2019-02-27T22:31:50.739Z,7.80
2019-02-27T22:34:19.623Z,7.80
2019-02-27T22:36:48.601Z,7.80
2019-02-27T22:39:18.999Z,7.70
2019-02-27T22:41:47.697Z,7.70
2019-02-27T22:44:16.388Z,7.70
2019-02-27T22:46:47.807Z,7.70
2019-02-27T22:49:15.700Z,7.70
2019-02-27T22:51:47.388Z,7.70
2019-02-27T22:54:14.852Z,7.70
2019-02-27T22:56:43.580Z,7.70
2019-02-27T22:59:12.505Z,7.70
2019-02-27T23:01:49.134Z,7.70
2019-02-27T23:04:19.519Z,7.70
2019-02-27T23:06:48.364Z,7.70
2019-02-27T23:09:19.002Z,7.60
2019-02-27T23:11:48.077Z,7.70
2019-02-27T23:14:18.884Z,7.70
2019-02-27T23:16:47.859Z,7.70
2019-02-27T23:19:16.847Z,7.60
2019-02-27T23:21:49.777Z,7.60
2019-02-27T23:24:21.467Z,7.60
2019-02-27T23:26:54.352Z,7.60
2019-02-27T23:29:20.897Z,7.60
2019-02-27T23:31:49.768Z,7.60
2019-02-27T23:34:18.694Z,7.70
2019-02-27T23:36:47.555Z,7.60
2019-02-27T23:39:35.380Z,7.60
2019-02-27T23:42:04.523Z,7.60
2019-02-27T23:44:33.135Z,7.60
2019-02-27T23:47:02.022Z,7.60
2019-02-27T23:49:30.756Z,7.50
2019-02-27T23:51:59.567Z,7.50
2019-02-27T23:54:35.453Z,7.50
2019-02-27T23:57:01.746Z,7.50
2019-02-27T23:59:32.989Z,7.50
